sensor_id;sensor_type;location;lat;lon;timestamp;temperature;humidity
74224;SHT31;62585;49.706;18.216;2022-08-24T00:01:16;18.55;92.01
74224;SHT31;62585;49.706;18.216;2022-08-24T00:03:43;18.61;91.70
74224;SHT31;62585;49.706;18.216;2022-08-24T00:06:14;18.58;92.14
74224;SHT31;62585;49.706;18.216;2022-08-24T00:08:41;18.62;91.81
74224;SHT31;62585;49.706;18.216;2022-08-24T00:11:08;18.66;91.56
74224;SHT31;62585;49.706;18.216;2022-08-24T00:13:34;18.69;91.33
74224;SHT31;62585;49.706;18.216;2022-08-24T00:16:00;18.55;91.78
74224;SHT31;62585;49.706;18.216;2022-08-24T00:18:27;18.44;92.28
74224;SHT31;62585;49.706;18.216;2022-08-24T00:20:53;18.42;92.25
74224;SHT31;62585;49.706;18.216;2022-08-24T00:23:20;18.49;92.02
74224;SHT31;62585;49.706;18.216;2022-08-24T00:25:46;18.56;91.90
74224;SHT31;62585;49.706;18.216;2022-08-24T00:28:12;18.55;91.72
74224;SHT31;62585;49.706;18.216;2022-08-24T00:30:38;18.49;91.83
74224;SHT31;62585;49.706;18.216;2022-08-24T00:33:04;18.40;92.38
74224;SHT31;62585;49.706;18.216;2022-08-24T00:35:30;18.41;92.45
74224;SHT31;62585;49.706;18.216;2022-08-24T00:37:56;18.40;92.66
74224;SHT31;62585;49.706;18.216;2022-08-24T00:40:26;18.18;93.43
74224;SHT31;62585;49.706;18.216;2022-08-24T00:42:53;18.25;93.40
74224;SHT31;62585;49.706;18.216;2022-08-24T00:45:19;18.42;92.96
74224;SHT31;62585;49.706;18.216;2022-08-24T00:48:06;18.38;92.92
74224;SHT31;62585;49.706;18.216;2022-08-24T00:50:49;18.30;93.15
74224;SHT31;62585;49.706;18.216;2022-08-24T00:53:30;18.37;92.90
74224;SHT31;62585;49.706;18.216;2022-08-24T00:56:03;18.31;93.15
74224;SHT31;62585;49.706;18.216;2022-08-24T00:58:36;18.31;93.17
74224;SHT31;62585;49.706;18.216;2022-08-24T01:01:05;18.30;93.37
74224;SHT31;62585;49.706;18.216;2022-08-24T01:03:32;18.34;93.46
74224;SHT31;62585;49.706;18.216;2022-08-24T01:05:59;18.40;93.40
74224;SHT31;62585;49.706;18.216;2022-08-24T01:08:26;18.40;93.16
74224;SHT31;62585;49.706;18.216;2022-08-24T01:11:04;18.37;93.42
74224;SHT31;62585;49.706;18.216;2022-08-24T01:13:31;18.48;93.20
74224;SHT31;62585;49.706;18.216;2022-08-24T01:16:02;18.45;92.95
74224;SHT31;62585;49.706;18.216;2022-08-24T01:18:29;18.35;93.39
74224;SHT31;62585;49.706;18.216;2022-08-24T01:21:19;18.21;93.88
74224;SHT31;62585;49.706;18.216;2022-08-24T01:23:54;18.11;94.49
74224;SHT31;62585;49.706;18.216;2022-08-24T01:26:33;18.11;94.66
74224;SHT31;62585;49.706;18.216;2022-08-24T01:29:06;18.15;94.56
74224;SHT31;62585;49.706;18.216;2022-08-24T01:31:33;18.23;94.20
74224;SHT31;62585;49.706;18.216;2022-08-24T01:33:59;18.31;93.94
74224;SHT31;62585;49.706;18.216;2022-08-24T01:39:00;18.40;93.24
74224;SHT31;62585;49.706;18.216;2022-08-24T01:41:27;18.37;93.32
74224;SHT31;62585;49.706;18.216;2022-08-24T01:43:53;18.42;93.35
74224;SHT31;62585;49.706;18.216;2022-08-24T01:46:20;18.42;93.21
74224;SHT31;62585;49.706;18.216;2022-08-24T01:48:45;18.42;93.04
74224;SHT31;62585;49.706;18.216;2022-08-24T01:51:11;18.41;92.96
74224;SHT31;62585;49.706;18.216;2022-08-24T01:53:37;18.42;93.16
74224;SHT31;62585;49.706;18.216;2022-08-24T01:56:03;18.44;93.08
74224;SHT31;62585;49.706;18.216;2022-08-24T01:58:30;18.45;92.99
74224;SHT31;62585;49.706;18.216;2022-08-24T02:00:56;18.47;92.94
74224;SHT31;62585;49.706;18.216;2022-08-24T02:03:22;18.48;92.85
74224;SHT31;62585;49.706;18.216;2022-08-24T02:05:49;18.47;93.17
74224;SHT31;62585;49.706;18.216;2022-08-24T02:08:16;18.52;92.92
74224;SHT31;62585;49.706;18.216;2022-08-24T02:10:42;18.53;92.71
74224;SHT31;62585;49.706;18.216;2022-08-24T02:13:08;18.48;92.93
74224;SHT31;62585;49.706;18.216;2022-08-24T02:15:36;18.51;92.90
74224;SHT31;62585;49.706;18.216;2022-08-24T02:18:06;18.53;92.79
74224;SHT31;62585;49.706;18.216;2022-08-24T02:20:33;18.55;92.89
74224;SHT31;62585;49.706;18.216;2022-08-24T02:22:59;18.49;93.00
74224;SHT31;62585;49.706;18.216;2022-08-24T02:25:26;18.53;92.98
74224;SHT31;62585;49.706;18.216;2022-08-24T02:27:58;18.51;92.91
74224;SHT31;62585;49.706;18.216;2022-08-24T02:30:25;18.59;92.69
74224;SHT31;62585;49.706;18.216;2022-08-24T02:32:51;18.63;92.71
74224;SHT31;62585;49.706;18.216;2022-08-24T02:35:17;18.65;92.53
74224;SHT31;62585;49.706;18.216;2022-08-24T02:37:43;18.56;92.84
74224;SHT31;62585;49.706;18.216;2022-08-24T02:40:10;18.58;92.82
74224;SHT31;62585;49.706;18.216;2022-08-24T02:42:37;18.55;93.00
74224;SHT31;62585;49.706;18.216;2022-08-24T02:45:04;18.59;92.97
74224;SHT31;62585;49.706;18.216;2022-08-24T02:47:30;18.48;93.20
74224;SHT31;62585;49.706;18.216;2022-08-24T02:49:56;18.40;93.41
74224;SHT31;62585;49.706;18.216;2022-08-24T02:52:23;18.30;94.03
74224;SHT31;62585;49.706;18.216;2022-08-24T02:54:49;18.28;94.27
74224;SHT31;62585;49.706;18.216;2022-08-24T02:57:14;18.28;94.23
74224;SHT31;62585;49.706;18.216;2022-08-24T02:59:41;18.41;93.74
74224;SHT31;62585;49.706;18.216;2022-08-24T03:02:07;18.42;93.47
74224;SHT31;62585;49.706;18.216;2022-08-24T03:04:33;18.31;93.93
74224;SHT31;62585;49.706;18.216;2022-08-24T03:06:59;18.30;94.01
74224;SHT31;62585;49.706;18.216;2022-08-24T03:09:25;18.15;94.52
74224;SHT31;62585;49.706;18.216;2022-08-24T03:11:50;18.20;94.53
74224;SHT31;62585;49.706;18.216;2022-08-24T03:14:17;18.17;94.53
74224;SHT31;62585;49.706;18.216;2022-08-24T03:16:44;18.20;94.48
74224;SHT31;62585;49.706;18.216;2022-08-24T03:19:11;18.27;94.27
74224;SHT31;62585;49.706;18.216;2022-08-24T03:21:37;18.30;93.96
74224;SHT31;62585;49.706;18.216;2022-08-24T03:24:03;18.35;93.80
74224;SHT31;62585;49.706;18.216;2022-08-24T03:26:28;18.41;93.56
74224;SHT31;62585;49.706;18.216;2022-08-24T03:28:55;18.51;93.13
74224;SHT31;62585;49.706;18.216;2022-08-24T03:31:21;18.51;92.93
74224;SHT31;62585;49.706;18.216;2022-08-24T03:33:47;18.51;92.93
74224;SHT31;62585;49.706;18.216;2022-08-24T03:36:13;18.58;92.75
74224;SHT31;62585;49.706;18.216;2022-08-24T03:38:39;18.53;92.86
74224;SHT31;62585;49.706;18.216;2022-08-24T03:41:05;18.59;92.62
74224;SHT31;62585;49.706;18.216;2022-08-24T03:43:31;18.61;92.57
74224;SHT31;62585;49.706;18.216;2022-08-24T03:46:19;18.61;92.51
74224;SHT31;62585;49.706;18.216;2022-08-24T03:48:46;18.68;92.20
74224;SHT31;62585;49.706;18.216;2022-08-24T03:51:14;18.63;92.44
74224;SHT31;62585;49.706;18.216;2022-08-24T03:53:40;18.59;92.60
74224;SHT31;62585;49.706;18.216;2022-08-24T03:56:07;18.62;92.47
74224;SHT31;62585;49.706;18.216;2022-08-24T03:58:35;18.65;92.29
74224;SHT31;62585;49.706;18.216;2022-08-24T04:01:02;18.59;92.64
74224;SHT31;62585;49.706;18.216;2022-08-24T04:03:28;18.61;92.52
74224;SHT31;62585;49.706;18.216;2022-08-24T04:05:54;18.62;92.41
74224;SHT31;62585;49.706;18.216;2022-08-24T04:08:20;18.66;92.32
74224;SHT31;62585;49.706;18.216;2022-08-24T04:10:47;18.76;92.14
74224;SHT31;62585;49.706;18.216;2022-08-24T04:13:13;18.82;91.98
74224;SHT31;62585;49.706;18.216;2022-08-24T04:15:40;18.77;92.05
74224;SHT31;62585;49.706;18.216;2022-08-24T04:18:07;18.69;92.44
74224;SHT31;62585;49.706;18.216;2022-08-24T04:20:40;18.58;92.81
74224;SHT31;62585;49.706;18.216;2022-08-24T04:23:07;18.55;92.86
74224;SHT31;62585;49.706;18.216;2022-08-24T04:25:45;18.61;92.79
74224;SHT31;62585;49.706;18.216;2022-08-24T04:28:13;18.69;92.52
74224;SHT31;62585;49.706;18.216;2022-08-24T04:30:44;18.69;92.45
74224;SHT31;62585;49.706;18.216;2022-08-24T04:33:12;18.75;92.48
74224;SHT31;62585;49.706;18.216;2022-08-24T04:35:43;18.72;92.44
74224;SHT31;62585;49.706;18.216;2022-08-24T04:38:10;18.79;92.09
74224;SHT31;62585;49.706;18.216;2022-08-24T04:40:41;18.73;92.20
74224;SHT31;62585;49.706;18.216;2022-08-24T04:43:07;18.70;92.43
74224;SHT31;62585;49.706;18.216;2022-08-24T04:45:38;18.70;92.34
74224;SHT31;62585;49.706;18.216;2022-08-24T04:48:05;18.65;92.65
74224;SHT31;62585;49.706;18.216;2022-08-24T04:50:36;18.68;92.66
74224;SHT31;62585;49.706;18.216;2022-08-24T04:53:04;18.68;92.66
74224;SHT31;62585;49.706;18.216;2022-08-24T04:55:39;18.63;92.73
74224;SHT31;62585;49.706;18.216;2022-08-24T04:58:06;18.62;92.27
74224;SHT31;62585;49.706;18.216;2022-08-24T05:00:32;18.63;92.59
74224;SHT31;62585;49.706;18.216;2022-08-24T05:02:57;18.61;92.80
74224;SHT31;62585;49.706;18.216;2022-08-24T05:05:24;18.59;92.55
74224;SHT31;62585;49.706;18.216;2022-08-24T05:07:49;18.65;92.70
74224;SHT31;62585;49.706;18.216;2022-08-24T05:10:15;18.76;92.22
74224;SHT31;62585;49.706;18.216;2022-08-24T05:12:42;18.76;91.83
74224;SHT31;62585;49.706;18.216;2022-08-24T05:15:08;18.80;92.12
74224;SHT31;62585;49.706;18.216;2022-08-24T05:17:34;18.86;92.11
74224;SHT31;62585;49.706;18.216;2022-08-24T05:20:00;18.93;91.74
74224;SHT31;62585;49.706;18.216;2022-08-24T05:22:26;18.88;91.81
74224;SHT31;62585;49.706;18.216;2022-08-24T05:24:52;18.85;92.20
74224;SHT31;62585;49.706;18.216;2022-08-24T05:27:18;18.70;92.65
74224;SHT31;62585;49.706;18.216;2022-08-24T05:29:45;18.59;92.99
74224;SHT31;62585;49.706;18.216;2022-08-24T05:32:11;18.45;93.69
74224;SHT31;62585;49.706;18.216;2022-08-24T05:34:37;18.45;94.11
74224;SHT31;62585;49.706;18.216;2022-08-24T05:37:03;18.48;94.00
74224;SHT31;62585;49.706;18.216;2022-08-24T05:39:29;18.52;93.76
74224;SHT31;62585;49.706;18.216;2022-08-24T05:41:56;18.53;93.69
74224;SHT31;62585;49.706;18.216;2022-08-24T05:44:24;18.62;93.45
74224;SHT31;62585;49.706;18.216;2022-08-24T05:46:50;18.66;93.28
74224;SHT31;62585;49.706;18.216;2022-08-24T05:49:17;18.72;93.20
74224;SHT31;62585;49.706;18.216;2022-08-24T05:51:43;18.79;92.81
74224;SHT31;62585;49.706;18.216;2022-08-24T05:54:10;18.86;92.61
74224;SHT31;62585;49.706;18.216;2022-08-24T05:56:38;18.82;92.74
74224;SHT31;62585;49.706;18.216;2022-08-24T05:59:04;18.66;93.71
74224;SHT31;62585;49.706;18.216;2022-08-24T06:01:30;18.61;93.87
74224;SHT31;62585;49.706;18.216;2022-08-24T06:03:56;18.68;93.95
74224;SHT31;62585;49.706;18.216;2022-08-24T06:06:23;18.63;94.29
74224;SHT31;62585;49.706;18.216;2022-08-24T06:08:52;18.73;94.06
74224;SHT31;62585;49.706;18.216;2022-08-24T06:11:26;18.77;93.92
74224;SHT31;62585;49.706;18.216;2022-08-24T06:13:54;18.76;93.87
74224;SHT31;62585;49.706;18.216;2022-08-24T06:16:22;18.79;94.10
74224;SHT31;62585;49.706;18.216;2022-08-24T06:18:49;18.89;93.55
74224;SHT31;62585;49.706;18.216;2022-08-24T06:21:19;18.97;93.37
74224;SHT31;62585;49.706;18.216;2022-08-24T06:23:45;18.97;93.20
74224;SHT31;62585;49.706;18.216;2022-08-24T06:26:12;18.97;93.60
74224;SHT31;62585;49.706;18.216;2022-08-24T06:28:56;18.89;94.00
74224;SHT31;62585;49.706;18.216;2022-08-24T06:31:23;18.97;93.77
74224;SHT31;62585;49.706;18.216;2022-08-24T06:33:49;19.03;93.71
74224;SHT31;62585;49.706;18.216;2022-08-24T06:36:15;19.02;93.65
74224;SHT31;62585;49.706;18.216;2022-08-24T06:38:41;19.03;93.52
74224;SHT31;62585;49.706;18.216;2022-08-24T06:41:08;19.04;93.53
74224;SHT31;62585;49.706;18.216;2022-08-24T06:43:35;19.06;93.83
74224;SHT31;62585;49.706;18.216;2022-08-24T06:46:01;19.20;93.45
74224;SHT31;62585;49.706;18.216;2022-08-24T06:48:27;19.26;92.90
74224;SHT31;62585;49.706;18.216;2022-08-24T06:50:56;19.20;93.07
74224;SHT31;62585;49.706;18.216;2022-08-24T06:53:22;19.16;93.40
74224;SHT31;62585;49.706;18.216;2022-08-24T06:55:50;19.23;93.17
74224;SHT31;62585;49.706;18.216;2022-08-24T06:58:17;19.30;92.84
74224;SHT31;62585;49.706;18.216;2022-08-24T07:00:43;19.38;92.75
74224;SHT31;62585;49.706;18.216;2022-08-24T07:03:09;19.47;92.70
74224;SHT31;62585;49.706;18.216;2022-08-24T07:05:35;19.55;92.12
74224;SHT31;62585;49.706;18.216;2022-08-24T07:08:02;19.62;91.84
74224;SHT31;62585;49.706;18.216;2022-08-24T07:10:29;19.62;91.84
74224;SHT31;62585;49.706;18.216;2022-08-24T07:12:55;19.53;92.09
74224;SHT31;62585;49.706;18.216;2022-08-24T07:15:22;19.45;92.62
74224;SHT31;62585;49.706;18.216;2022-08-24T07:17:48;19.50;92.63
74224;SHT31;62585;49.706;18.216;2022-08-24T07:20:16;19.53;92.42
74224;SHT31;62585;49.706;18.216;2022-08-24T07:22:42;19.57;92.35
74224;SHT31;62585;49.706;18.216;2022-08-24T07:25:10;19.69;91.91
74224;SHT31;62585;49.706;18.216;2022-08-24T07:27:36;19.81;91.59
74224;SHT31;62585;49.706;18.216;2022-08-24T07:30:04;19.87;91.50
74224;SHT31;62585;49.706;18.216;2022-08-24T07:32:31;19.85;91.36
74224;SHT31;62585;49.706;18.216;2022-08-24T07:34:59;19.90;90.93
74224;SHT31;62585;49.706;18.216;2022-08-24T07:37:25;19.99;91.06
74224;SHT31;62585;49.706;18.216;2022-08-24T07:39:51;19.89;91.41
74224;SHT31;62585;49.706;18.216;2022-08-24T07:42:17;19.82;91.77
74224;SHT31;62585;49.706;18.216;2022-08-24T07:44:43;19.75;92.54
74224;SHT31;62585;49.706;18.216;2022-08-24T07:47:09;19.83;91.93
74224;SHT31;62585;49.706;18.216;2022-08-24T07:49:35;19.90;91.81
74224;SHT31;62585;49.706;18.216;2022-08-24T07:52:01;19.68;92.34
74224;SHT31;62585;49.706;18.216;2022-08-24T07:54:27;19.64;92.58
74224;SHT31;62585;49.706;18.216;2022-08-24T07:56:53;19.72;92.47
74224;SHT31;62585;49.706;18.216;2022-08-24T07:59:19;19.87;92.10
74224;SHT31;62585;49.706;18.216;2022-08-24T08:01:45;19.96;92.02
74224;SHT31;62585;49.706;18.216;2022-08-24T08:04:12;20.03;91.53
74224;SHT31;62585;49.706;18.216;2022-08-24T08:06:40;20.09;91.37
74224;SHT31;62585;49.706;18.216;2022-08-24T08:09:06;20.05;91.48
74224;SHT31;62585;49.706;18.216;2022-08-24T08:11:32;20.16;90.99
74224;SHT31;62585;49.706;18.216;2022-08-24T08:13:58;20.05;91.67
74224;SHT31;62585;49.706;18.216;2022-08-24T08:16:24;20.12;90.62
74224;SHT31;62585;49.706;18.216;2022-08-24T08:18:51;20.17;90.80
74224;SHT31;62585;49.706;18.216;2022-08-24T08:21:17;20.23;90.79
74224;SHT31;62585;49.706;18.216;2022-08-24T08:24:01;20.34;90.11
74224;SHT31;62585;49.706;18.216;2022-08-24T08:26:42;20.26;90.60
74224;SHT31;62585;49.706;18.216;2022-08-24T08:29:08;20.33;90.60
74224;SHT31;62585;49.706;18.216;2022-08-24T08:31:35;20.23;90.85
74224;SHT31;62585;49.706;18.216;2022-08-24T08:34:02;20.10;91.29
74224;SHT31;62585;49.706;18.216;2022-08-24T08:36:29;20.10;91.35
74224;SHT31;62585;49.706;18.216;2022-08-24T08:38:55;20.13;91.28
74224;SHT31;62585;49.706;18.216;2022-08-24T08:41:45;20.27;90.84
74224;SHT31;62585;49.706;18.216;2022-08-24T08:44:16;20.29;90.22
74224;SHT31;62585;49.706;18.216;2022-08-24T08:47:12;20.32;91.04
74224;SHT31;62585;49.706;18.216;2022-08-24T08:55:25;20.16;91.30
74224;SHT31;62585;49.706;18.216;2022-08-24T09:06:41;20.10;91.64
74224;SHT31;62585;49.706;18.216;2022-08-24T09:09:40;20.20;91.17
74224;SHT31;62585;49.706;18.216;2022-08-24T09:12:26;20.29;90.67
74224;SHT31;62585;49.706;18.216;2022-08-24T09:18:25;20.41;90.72
74224;SHT31;62585;49.706;18.216;2022-08-24T09:21:16;20.50;90.40
74224;SHT31;62585;49.706;18.216;2022-08-24T09:24:49;20.61;90.20
74224;SHT31;62585;49.706;18.216;2022-08-24T09:27:33;20.57;89.61
74224;SHT31;62585;49.706;18.216;2022-08-24T09:47:26;20.82;89.08
74224;SHT31;62585;49.706;18.216;2022-08-24T09:56:31;20.89;88.23
74224;SHT31;62585;49.706;18.216;2022-08-24T10:04:49;20.96;87.80
74224;SHT31;62585;49.706;18.216;2022-08-24T10:07:38;20.94;87.90
74224;SHT31;62585;49.706;18.216;2022-08-24T10:10:12;20.91;87.89
74224;SHT31;62585;49.706;18.216;2022-08-24T10:12:50;20.95;87.51
74224;SHT31;62585;49.706;18.216;2022-08-24T10:15:35;20.84;87.73
74224;SHT31;62585;49.706;18.216;2022-08-24T10:20:48;20.89;88.51
74224;SHT31;62585;49.706;18.216;2022-08-24T10:26:18;21.46;86.15
74224;SHT31;62585;49.706;18.216;2022-08-24T10:29:11;21.56;85.56
74224;SHT31;62585;49.706;18.216;2022-08-24T10:35:13;21.29;85.99
74224;SHT31;62585;49.706;18.216;2022-08-24T10:41:24;21.60;84.89
74224;SHT31;62585;49.706;18.216;2022-08-24T10:47:00;21.87;83.84
74224;SHT31;62585;49.706;18.216;2022-08-24T10:54:34;21.68;85.38
74224;SHT31;62585;49.706;18.216;2022-08-24T10:57:43;21.64;85.26
74224;SHT31;62585;49.706;18.216;2022-08-24T11:00:15;21.54;85.60
74224;SHT31;62585;49.706;18.216;2022-08-24T11:02:43;21.51;85.62
74224;SHT31;62585;49.706;18.216;2022-08-24T11:05:15;21.58;85.13
74224;SHT31;62585;49.706;18.216;2022-08-24T11:07:57;21.61;85.40
74224;SHT31;62585;49.706;18.216;2022-08-24T11:10:36;21.66;85.65
74224;SHT31;62585;49.706;18.216;2022-08-24T11:13:20;21.57;85.67
74224;SHT31;62585;49.706;18.216;2022-08-24T11:15:55;21.63;85.71
74224;SHT31;62585;49.706;18.216;2022-08-24T11:18:22;21.81;85.49
74224;SHT31;62585;49.706;18.216;2022-08-24T11:20:51;21.95;83.84
74224;SHT31;62585;49.706;18.216;2022-08-24T11:26:17;21.84;84.41
74224;SHT31;62585;49.706;18.216;2022-08-24T11:28:52;21.63;84.71
74224;SHT31;62585;49.706;18.216;2022-08-24T11:31:26;21.60;85.51
74224;SHT31;62585;49.706;18.216;2022-08-24T11:33:59;21.61;85.21
74224;SHT31;62585;49.706;18.216;2022-08-24T11:36:27;21.64;85.19
74224;SHT31;62585;49.706;18.216;2022-08-24T11:39:22;21.74;85.25
74224;SHT31;62585;49.706;18.216;2022-08-24T11:50:34;21.87;84.70
74224;SHT31;62585;49.706;18.216;2022-08-24T11:53:14;22.00;84.44
74224;SHT31;62585;49.706;18.216;2022-08-24T12:05:05;22.00;84.08
74224;SHT31;62585;49.706;18.216;2022-08-24T12:07:23;22.12;83.56
74224;SHT31;62585;49.706;18.216;2022-08-24T12:13:00;22.49;82.33
74224;SHT31;62585;49.706;18.216;2022-08-24T12:21:18;23.27;80.79
74224;SHT31;62585;49.706;18.216;2022-08-24T12:23:49;23.58;80.10
74224;SHT31;62585;49.706;18.216;2022-08-24T12:26:40;23.70;78.20
74224;SHT31;62585;49.706;18.216;2022-08-24T12:34:44;24.38;77.07
74224;SHT31;62585;49.706;18.216;2022-08-24T12:37:28;23.97;77.52
74224;SHT31;62585;49.706;18.216;2022-08-24T12:42:45;23.46;78.93
74224;SHT31;62585;49.706;18.216;2022-08-24T12:45:15;23.21;80.24
74224;SHT31;62585;49.706;18.216;2022-08-24T12:59:22;23.00;80.05
74224;SHT31;62585;49.706;18.216;2022-08-24T13:01:46;22.81;80.90
74224;SHT31;62585;49.706;18.216;2022-08-24T13:06:53;23.17;80.10
74224;SHT31;62585;49.706;18.216;2022-08-24T13:17:57;23.76;78.39
74224;SHT31;62585;49.706;18.216;2022-08-24T13:23:18;23.75;78.89
74224;SHT31;62585;49.706;18.216;2022-08-24T13:28:44;23.82;77.79
74224;SHT31;62585;49.706;18.216;2022-08-24T13:39:05;23.46;79.47
74224;SHT31;62585;49.706;18.216;2022-08-24T13:44:39;23.58;78.74
74224;SHT31;62585;49.706;18.216;2022-08-24T14:06:54;24.11;77.46
74224;SHT31;62585;49.706;18.216;2022-08-24T14:09:40;24.10;76.66
74224;SHT31;62585;49.706;18.216;2022-08-24T14:15:21;24.06;77.99
74224;SHT31;62585;49.706;18.216;2022-08-24T14:25:42;23.76;77.63
74224;SHT31;62585;49.706;18.216;2022-08-24T14:28:23;23.87;77.76
74224;SHT31;62585;49.706;18.216;2022-08-24T14:31:23;24.03;77.33
74224;SHT31;62585;49.706;18.216;2022-08-24T14:36:49;24.07;77.33
74224;SHT31;62585;49.706;18.216;2022-08-24T14:39:54;24.32;77.21
74224;SHT31;62585;49.706;18.216;2022-08-24T14:42:23;24.67;75.89
74224;SHT31;62585;49.706;18.216;2022-08-24T14:45:00;24.78;75.75
74224;SHT31;62585;49.706;18.216;2022-08-24T14:50:13;25.41;73.45
74224;SHT31;62585;49.706;18.216;2022-08-24T14:55:51;25.51;74.33
74224;SHT31;62585;49.706;18.216;2022-08-24T14:58:28;25.55;72.99
74224;SHT31;62585;49.706;18.216;2022-08-24T15:03:52;25.10;74.73
74224;SHT31;62585;49.706;18.216;2022-08-24T15:06:51;25.17;74.39
74224;SHT31;62585;49.706;18.216;2022-08-24T15:09:30;24.88;76.64
74224;SHT31;62585;49.706;18.216;2022-08-24T15:12:13;24.80;76.01
74224;SHT31;62585;49.706;18.216;2022-08-24T15:14:54;24.83;75.79
74224;SHT31;62585;49.706;18.216;2022-08-24T15:17:34;24.68;75.67
74224;SHT31;62585;49.706;18.216;2022-08-24T15:23:15;24.85;76.20
74224;SHT31;62585;49.706;18.216;2022-08-24T15:28:29;24.68;76.78
74224;SHT31;62585;49.706;18.216;2022-08-24T15:31:04;24.48;75.52
74224;SHT31;62585;49.706;18.216;2022-08-24T15:33:32;24.35;77.59
74224;SHT31;62585;49.706;18.216;2022-08-24T15:36:12;24.25;78.02
74224;SHT31;62585;49.706;18.216;2022-08-24T15:38:39;24.13;78.68
74224;SHT31;62585;49.706;18.216;2022-08-24T15:41:19;24.09;78.20
74224;SHT31;62585;49.706;18.216;2022-08-24T15:46:25;23.70;79.18
74224;SHT31;62585;49.706;18.216;2022-08-24T15:49:01;23.69;80.02
74224;SHT31;62585;49.706;18.216;2022-08-24T15:51:45;23.76;80.11
74224;SHT31;62585;49.706;18.216;2022-08-24T15:54:16;23.62;80.68
74224;SHT31;62585;49.706;18.216;2022-08-24T15:56:56;23.55;80.35
74224;SHT31;62585;49.706;18.216;2022-08-24T16:10:34;23.24;83.38
74224;SHT31;62585;49.706;18.216;2022-08-24T16:15:47;23.18;82.01
74224;SHT31;62585;49.706;18.216;2022-08-24T16:18:15;23.27;82.51
74224;SHT31;62585;49.706;18.216;2022-08-24T16:20:42;23.34;82.47
74224;SHT31;62585;49.706;18.216;2022-08-24T16:23:24;23.32;82.50
74224;SHT31;62585;49.706;18.216;2022-08-24T16:28:42;23.28;82.69
74224;SHT31;62585;49.706;18.216;2022-08-24T16:31:08;23.29;82.38
74224;SHT31;62585;49.706;18.216;2022-08-24T16:33:40;23.28;83.03
74224;SHT31;62585;49.706;18.216;2022-08-24T16:36:09;23.24;83.09
74224;SHT31;62585;49.706;18.216;2022-08-24T16:38:37;23.17;83.51
74224;SHT31;62585;49.706;18.216;2022-08-24T16:41:07;23.15;83.67
74224;SHT31;62585;49.706;18.216;2022-08-24T16:43:39;23.14;83.72
74224;SHT31;62585;49.706;18.216;2022-08-24T16:46:07;23.18;83.67
74224;SHT31;62585;49.706;18.216;2022-08-24T16:48:34;23.25;83.13
74224;SHT31;62585;49.706;18.216;2022-08-24T16:51:00;23.21;83.29
74224;SHT31;62585;49.706;18.216;2022-08-24T16:53:27;23.17;84.04
74224;SHT31;62585;49.706;18.216;2022-08-24T16:55:53;23.15;82.92
74224;SHT31;62585;49.706;18.216;2022-08-24T16:58:20;23.01;83.73
74224;SHT31;62585;49.706;18.216;2022-08-24T17:00:49;23.03;84.09
74224;SHT31;62585;49.706;18.216;2022-08-24T17:03:16;23.03;84.25
74224;SHT31;62585;49.706;18.216;2022-08-24T17:05:42;23.06;84.35
74224;SHT31;62585;49.706;18.216;2022-08-24T17:08:10;23.00;84.16
74224;SHT31;62585;49.706;18.216;2022-08-24T17:10:37;22.87;84.67
74224;SHT31;62585;49.706;18.216;2022-08-24T17:13:03;22.84;84.58
74224;SHT31;62585;49.706;18.216;2022-08-24T17:15:29;22.86;84.90
74224;SHT31;62585;49.706;18.216;2022-08-24T17:18:09;22.84;84.95
74224;SHT31;62585;49.706;18.216;2022-08-24T17:20:36;22.81;84.94
74224;SHT31;62585;49.706;18.216;2022-08-24T17:23:02;22.76;85.24
74224;SHT31;62585;49.706;18.216;2022-08-24T17:25:28;22.66;85.11
74224;SHT31;62585;49.706;18.216;2022-08-24T17:27:55;22.69;85.15
74224;SHT31;62585;49.706;18.216;2022-08-24T17:30:22;22.52;85.29
74224;SHT31;62585;49.706;18.216;2022-08-24T17:32:52;22.48;85.70
74224;SHT31;62585;49.706;18.216;2022-08-24T17:35:20;22.35;86.25
74224;SHT31;62585;49.706;18.216;2022-08-24T17:37:47;22.36;86.31
74224;SHT31;62585;49.706;18.216;2022-08-24T17:40:16;22.38;85.63
74224;SHT31;62585;49.706;18.216;2022-08-24T17:42:43;22.31;86.04
74224;SHT31;62585;49.706;18.216;2022-08-24T17:45:09;22.19;86.44
74224;SHT31;62585;49.706;18.216;2022-08-24T17:47:35;22.22;86.52
74224;SHT31;62585;49.706;18.216;2022-08-24T17:50:02;22.21;86.68
74224;SHT31;62585;49.706;18.216;2022-08-24T17:52:28;22.12;86.72
74224;SHT31;62585;49.706;18.216;2022-08-24T17:54:54;22.11;86.78
74224;SHT31;62585;49.706;18.216;2022-08-24T17:57:23;22.15;86.63
74224;SHT31;62585;49.706;18.216;2022-08-24T17:59:50;22.12;86.77
74224;SHT31;62585;49.706;18.216;2022-08-24T18:02:17;22.08;86.90
74224;SHT31;62585;49.706;18.216;2022-08-24T18:04:43;22.09;86.81
74224;SHT31;62585;49.706;18.216;2022-08-24T18:07:12;22.06;86.93
74224;SHT31;62585;49.706;18.216;2022-08-24T18:09:43;22.05;87.05
74224;SHT31;62585;49.706;18.216;2022-08-24T18:12:19;22.05;87.19
74224;SHT31;62585;49.706;18.216;2022-08-24T18:14:45;21.97;87.26
74224;SHT31;62585;49.706;18.216;2022-08-24T18:17:14;22.01;87.68
74224;SHT31;62585;49.706;18.216;2022-08-24T18:19:43;22.02;87.09
74224;SHT31;62585;49.706;18.216;2022-08-24T18:22:09;22.00;87.50
74224;SHT31;62585;49.706;18.216;2022-08-24T18:24:35;22.01;87.66
74224;SHT31;62585;49.706;18.216;2022-08-24T18:27:08;22.01;87.35
74224;SHT31;62585;49.706;18.216;2022-08-24T18:29:35;21.95;87.65
74224;SHT31;62585;49.706;18.216;2022-08-24T18:32:03;21.98;87.38
74224;SHT31;62585;49.706;18.216;2022-08-24T18:34:29;21.95;87.36
74224;SHT31;62585;49.706;18.216;2022-08-24T18:36:56;21.97;87.41
74224;SHT31;62585;49.706;18.216;2022-08-24T18:39:23;21.91;87.34
74224;SHT31;62585;49.706;18.216;2022-08-24T18:41:50;21.75;88.07
74224;SHT31;62585;49.706;18.216;2022-08-24T18:44:18;21.80;87.95
74224;SHT31;62585;49.706;18.216;2022-08-24T18:46:45;21.75;88.29
74224;SHT31;62585;49.706;18.216;2022-08-24T18:49:13;21.75;87.95
74224;SHT31;62585;49.706;18.216;2022-08-24T18:51:39;21.75;88.03
74224;SHT31;62585;49.706;18.216;2022-08-24T18:54:10;21.74;88.04
74224;SHT31;62585;49.706;18.216;2022-08-24T18:56:37;21.85;87.94
74224;SHT31;62585;49.706;18.216;2022-08-24T18:59:03;21.83;87.88
74224;SHT31;62585;49.706;18.216;2022-08-24T19:01:32;21.70;88.58
74224;SHT31;62585;49.706;18.216;2022-08-24T19:04:21;21.73;89.03
74224;SHT31;62585;49.706;18.216;2022-08-24T19:06:48;21.66;88.81
74224;SHT31;62585;49.706;18.216;2022-08-24T19:09:15;21.58;89.32